sensor_id;sensor_type;location;lat;lon;timestamp;P1;durP1;ratioP1;P2;durP2;ratioP2
15915;SDS011;8057;47.830;-3.870;2023-04-23T00:11:03;21.33;;;4.63;;
15915;SDS011;8057;47.830;-3.870;2023-04-23T00:15:24;23.60;;;4.00;;
15915;SDS011;8057;47.830;-3.870;2023-04-23T00:19:34;21.30;;;2.87;;
15915;SDS011;8057;47.830;-3.870;2023-04-23T00:23:44;23.67;;;4.53;;
15915;SDS011;8057;47.830;-3.870;2023-04-23T00:27:57;24.47;;;4.87;;
15915;SDS011;8057;47.830;-3.870;2023-04-23T00:37:52;17.63;;;3.77;;
15915;SDS011;8057;47.830;-3.870;2023-04-23T00:43:10;18.13;;;3.23;;
15915;SDS011;8057;47.830;-3.870;2023-04-23T00:47:41;16.20;;;3.27;;
15915;SDS011;8057;47.830;-3.870;2023-04-23T00:52:21;20.17;;;4.00;;
15915;SDS011;8057;47.830;-3.870;2023-04-23T00:56:35;17.87;;;3.20;;
15915;SDS011;8057;47.830;-3.870;2023-04-23T01:00:47;17.73;;;3.20;;
15915;SDS011;8057;47.830;-3.870;2023-04-23T01:05:01;20.37;;;3.20;;
15915;SDS011;8057;47.830;-3.870;2023-04-23T01:09:49;14.50;;;2.80;;
15915;SDS011;8057;47.830;-3.870;2023-04-23T01:14:12;16.67;;;2.47;;
15915;SDS011;8057;47.830;-3.870;2023-04-23T01:35:15;15.37;;;2.73;;
15915;SDS011;8057;47.830;-3.870;2023-04-23T06:08:42;7.77;;;2.00;;
15915;SDS011;8057;47.830;-3.870;2023-04-23T06:13:15;5.37;;;1.80;;
15915;SDS011;8057;47.830;-3.870;2023-04-23T06:17:52;6.30;;;2.13;;
15915;SDS011;8057;47.830;-3.870;2023-04-23T06:22:34;6.67;;;2.30;;
15915;SDS011;8057;47.830;-3.870;2023-04-23T06:31:56;5.50;;;2.30;;
15915;SDS011;8057;47.830;-3.870;2023-04-23T06:36:37;6.67;;;2.47;;
15915;SDS011;8057;47.830;-3.870;2023-04-23T06:51:02;9.33;;;3.13;;
15915;SDS011;8057;47.830;-3.870;2023-04-23T06:55:22;8.33;;;2.93;;
15915;SDS011;8057;47.830;-3.870;2023-04-23T07:00:05;10.83;;;3.23;;
15915;SDS011;8057;47.830;-3.870;2023-04-23T07:04:40;10.07;;;4.07;;
15915;SDS011;8057;47.830;-3.870;2023-04-23T07:18:49;12.93;;;4.27;;
15915;SDS011;8057;47.830;-3.870;2023-04-23T07:23:30;12.57;;;3.13;;
15915;SDS011;8057;47.830;-3.870;2023-04-23T07:32:36;14.33;;;3.30;;
15915;SDS011;8057;47.830;-3.870;2023-04-23T07:37:14;14.50;;;3.67;;
15915;SDS011;8057;47.830;-3.870;2023-04-23T08:02:02;8.10;;;2.67;;
15915;SDS011;8057;47.830;-3.870;2023-04-23T08:07:14;10.07;;;2.37;;
15915;SDS011;8057;47.830;-3.870;2023-04-23T08:11:23;6.20;;;2.50;;
15915;SDS011;8057;47.830;-3.870;2023-04-23T08:15:35;4.70;;;1.70;;
15915;SDS011;8057;47.830;-3.870;2023-04-23T08:19:44;4.40;;;1.30;;
15915;SDS011;8057;47.830;-3.870;2023-04-23T08:28:39;5.23;;;1.47;;
15915;SDS011;8057;47.830;-3.870;2023-04-23T08:33:10;6.33;;;1.83;;
15915;SDS011;8057;47.830;-3.870;2023-04-23T08:37:28;4.67;;;1.70;;
15915;SDS011;8057;47.830;-3.870;2023-04-23T08:41:54;4.53;;;1.70;;
15915;SDS011;8057;47.830;-3.870;2023-04-23T08:46:24;5.23;;;1.77;;
15915;SDS011;8057;47.830;-3.870;2023-04-23T08:50:42;6.27;;;1.90;;
15915;SDS011;8057;47.830;-3.870;2023-04-23T08:54:53;5.10;;;1.53;;
15915;SDS011;8057;47.830;-3.870;2023-04-23T08:59:12;4.83;;;1.80;;
15915;SDS011;8057;47.830;-3.870;2023-04-23T09:03:26;5.67;;;1.57;;
15915;SDS011;8057;47.830;-3.870;2023-04-23T09:07:38;4.77;;;1.50;;
15915;SDS011;8057;47.830;-3.870;2023-04-23T09:11:48;1.93;;;1.23;;
15915;SDS011;8057;47.830;-3.870;2023-04-23T09:16:07;3.63;;;1.13;;
15915;SDS011;8057;47.830;-3.870;2023-04-23T09:20:20;2.73;;;1.13;;
15915;SDS011;8057;47.830;-3.870;2023-04-23T09:24:50;2.33;;;1.17;;
15915;SDS011;8057;47.830;-3.870;2023-04-23T09:29:29;1.17;;;0.70;;
15915;SDS011;8057;47.830;-3.870;2023-04-23T09:33:40;1.57;;;1.10;;
15915;SDS011;8057;47.830;-3.870;2023-04-23T09:37:50;1.40;;;1.20;;
15915;SDS011;8057;47.830;-3.870;2023-04-23T09:42:04;2.07;;;0.80;;
15915;SDS011;8057;47.830;-3.870;2023-04-23T09:46:16;2.17;;;1.17;;
15915;SDS011;8057;47.830;-3.870;2023-04-23T09:50:32;1.63;;;1.40;;
15915;SDS011;8057;47.830;-3.870;2023-04-23T09:54:43;2.63;;;1.00;;
15915;SDS011;8057;47.830;-3.870;2023-04-23T09:58:58;1.73;;;1.00;;
15915;SDS011;8057;47.830;-3.870;2023-04-23T10:03:10;1.67;;;0.90;;
15915;SDS011;8057;47.830;-3.870;2023-04-23T10:17:23;0.93;;;0.93;;
15915;SDS011;8057;47.830;-3.870;2023-04-23T10:26:12;3.87;;;1.60;;
15915;SDS011;8057;47.830;-3.870;2023-04-23T10:30:31;1.70;;;1.60;;
15915;SDS011;8057;47.830;-3.870;2023-04-23T10:34:49;2.07;;;1.70;;
15915;SDS011;8057;47.830;-3.870;2023-04-23T10:39:00;2.10;;;1.70;;
15915;SDS011;8057;47.830;-3.870;2023-04-23T10:43:16;2.93;;;2.00;;
15915;SDS011;8057;47.830;-3.870;2023-04-23T10:47:46;2.80;;;2.37;;
15915;SDS011;8057;47.830;-3.870;2023-04-23T10:52:12;2.10;;;1.90;;
15915;SDS011;8057;47.830;-3.870;2023-04-23T10:56:44;3.27;;;2.97;;
15915;SDS011;8057;47.830;-3.870;2023-04-23T11:01:08;3.13;;;2.80;;
15915;SDS011;8057;47.830;-3.870;2023-04-23T11:05:36;5.87;;;2.83;;
15915;SDS011;8057;47.830;-3.870;2023-04-23T11:09:52;3.40;;;2.43;;
15915;SDS011;8057;47.830;-3.870;2023-04-23T11:14:10;3.20;;;2.80;;
15915;SDS011;8057;47.830;-3.870;2023-04-23T11:23:06;3.23;;;2.40;;
15915;SDS011;8057;47.830;-3.870;2023-04-23T11:27:38;2.60;;;2.40;;
15915;SDS011;8057;47.830;-3.870;2023-04-23T11:31:50;2.97;;;2.30;;
15915;SDS011;8057;47.830;-3.870;2023-04-23T11:36:20;2.43;;;2.23;;
15915;SDS011;8057;47.830;-3.870;2023-04-23T11:40:36;2.83;;;2.57;;
15915;SDS011;8057;47.830;-3.870;2023-04-23T11:44:46;2.93;;;2.73;;
15915;SDS011;8057;47.830;-3.870;2023-04-23T11:48:58;3.40;;;2.63;;
15915;SDS011;8057;47.830;-3.870;2023-04-23T11:53:08;2.67;;;2.47;;
15915;SDS011;8057;47.830;-3.870;2023-04-23T11:58:05;3.73;;;2.87;;
15915;SDS011;8057;47.830;-3.870;2023-04-23T12:02:36;5.20;;;3.03;;
15915;SDS011;8057;47.830;-3.870;2023-04-23T12:06:49;4.97;;;2.90;;
15915;SDS011;8057;47.830;-3.870;2023-04-23T12:11:05;3.57;;;2.60;;
15915;SDS011;8057;47.830;-3.870;2023-04-23T12:15:29;8.43;;;2.90;;
15915;SDS011;8057;47.830;-3.870;2023-04-23T12:19:57;4.37;;;3.20;;
15915;SDS011;8057;47.830;-3.870;2023-04-23T12:24:21;7.43;;;3.33;;
15915;SDS011;8057;47.830;-3.870;2023-04-23T12:28:33;4.03;;;3.27;;
15915;SDS011;8057;47.830;-3.870;2023-04-23T12:32:49;4.47;;;2.90;;
15915;SDS011;8057;47.830;-3.870;2023-04-23T12:37:04;2.57;;;2.37;;
15915;SDS011;8057;47.830;-3.870;2023-04-23T12:41:18;5.33;;;2.90;;
15915;SDS011;8057;47.830;-3.870;2023-04-23T12:45:35;4.43;;;2.60;;
15915;SDS011;8057;47.830;-3.870;2023-04-23T12:49:52;3.63;;;2.70;;
15915;SDS011;8057;47.830;-3.870;2023-04-23T12:54:11;5.10;;;2.93;;
15915;SDS011;8057;47.830;-3.870;2023-04-23T12:58:22;6.03;;;3.10;;
15915;SDS011;8057;47.830;-3.870;2023-04-23T13:02:34;4.43;;;2.83;;
15915;SDS011;8057;47.830;-3.870;2023-04-23T13:07:01;5.53;;;3.17;;
15915;SDS011;8057;47.830;-3.870;2023-04-23T13:11:12;3.93;;;3.27;;
15915;SDS011;8057;47.830;-3.870;2023-04-23T13:15:25;5.57;;;3.57;;
15915;SDS011;8057;47.830;-3.870;2023-04-23T13:19:53;5.07;;;3.30;;
15915;SDS011;8057;47.830;-3.870;2023-04-23T13:24:07;5.63;;;3.50;;
15915;SDS011;8057;47.830;-3.870;2023-04-23T13:28:23;4.77;;;3.53;;
15915;SDS011;8057;47.830;-3.870;2023-04-23T13:32:54;5.90;;;3.43;;
15915;SDS011;8057;47.830;-3.870;2023-04-23T13:37:08;6.63;;;3.40;;
15915;SDS011;8057;47.830;-3.870;2023-04-23T13:41:23;3.30;;;3.00;;
15915;SDS011;8057;47.830;-3.870;2023-04-23T13:55:12;5.60;;;3.90;;
15915;SDS011;8057;47.830;-3.870;2023-04-23T14:18:59;6.13;;;2.80;;
15915;SDS011;8057;47.830;-3.870;2023-04-23T14:28:50;6.67;;;3.47;;
15915;SDS011;8057;47.830;-3.870;2023-04-23T14:33:24;6.70;;;3.43;;
15915;SDS011;8057;47.830;-3.870;2023-04-23T14:42:51;9.90;;;3.50;;
15915;SDS011;8057;47.830;-3.870;2023-04-23T14:47:23;7.23;;;3.87;;
15915;SDS011;8057;47.830;-3.870;2023-04-23T14:51:34;8.13;;;3.60;;
15915;SDS011;8057;47.830;-3.870;2023-04-23T14:56:20;6.63;;;3.33;;
15915;SDS011;8057;47.830;-3.870;2023-04-23T15:00:37;7.43;;;3.07;;
15915;SDS011;8057;47.830;-3.870;2023-04-23T15:05:08;5.30;;;2.80;;
15915;SDS011;8057;47.830;-3.870;2023-04-23T15:09:17;6.87;;;3.00;;
15915;SDS011;8057;47.830;-3.870;2023-04-23T15:18:26;8.40;;;3.10;;
15915;SDS011;8057;47.830;-3.870;2023-04-23T15:27:40;7.07;;;3.20;;
15915;SDS011;8057;47.830;-3.870;2023-04-23T18:47:30;9.73;;;4.60;;
15915;SDS011;8057;47.830;-3.870;2023-04-23T19:01:03;9.33;;;5.00;;
15915;SDS011;8057;47.830;-3.870;2023-04-23T19:09:56;7.23;;;4.70;;
15915;SDS011;8057;47.830;-3.870;2023-04-23T20:43:50;10.00;;;4.50;;
15915;SDS011;8057;47.830;-3.870;2023-04-23T20:48:00;8.80;;;4.33;;
15915;SDS011;8057;47.830;-3.870;2023-04-23T20:52:11;12.13;;;4.80;;
15915;SDS011;8057;47.830;-3.870;2023-04-23T23:35:56;10.07;;;3.70;;
15915;SDS011;8057;47.830;-3.870;2023-04-23T23:40:10;13.23;;;4.27;;
15915;SDS011;8057;47.830;-3.870;2023-04-23T23:44:48;10.57;;;4.13;;
15915;SDS011;8057;47.830;-3.870;2023-04-23T23:59:18;14.90;;;4.77;;
